createdAt,value
2019-03-24T00:01:41.603Z,6.50
2019-03-24T00:04:11.236Z,5.73
2019-03-24T00:06:40.302Z,5.70
2019-03-24T00:09:09.321Z,6.50
2019-03-24T00:11:38.350Z,6.30
2019-03-24T00:14:07.758Z,5.93
2019-03-24T00:16:36.688Z,6.20
2019-03-24T00:19:06.199Z,7.40
2019-03-24T00:21:35.256Z,8.50
2019-03-24T00:24:04.295Z,8.93
2019-03-24T00:26:33.487Z,9.63
2019-03-24T00:29:02.344Z,8.53
2019-03-24T00:31:31.686Z,10.60
2019-03-24T00:34:00.608Z,10.50
2019-03-24T00:36:30.002Z,11.07
2019-03-24T00:38:59.422Z,12.70
2019-03-24T00:41:28.867Z,13.50
2019-03-24T00:43:58.469Z,12.90
2019-03-24T00:46:27.894Z,12.47
2019-03-24T00:48:57.507Z,13.87
2019-03-24T00:51:26.939Z,13.20
2019-03-24T00:53:56.362Z,13.87
2019-03-24T00:56:25.419Z,13.83
2019-03-24T00:58:54.618Z,14.23
2019-03-24T01:01:24.229Z,13.63
2019-03-24T01:03:53.559Z,14.23
2019-03-24T01:06:22.887Z,14.87
2019-03-24T01:08:52.004Z,14.53
2019-03-24T01:11:21.528Z,13.07
2019-03-24T01:13:50.615Z,13.70
2019-03-24T01:16:19.611Z,12.87
2019-03-24T01:18:49.019Z,14.47
2019-03-24T01:21:18.440Z,14.50
2019-03-24T01:23:47.666Z,15.37
2019-03-24T01:26:16.604Z,14.70
2019-03-24T01:28:45.919Z,14.80
2019-03-24T01:31:15.247Z,15.40
2019-03-24T01:33:44.202Z,16.07
2019-03-24T01:36:13.791Z,16.23
2019-03-24T01:38:43.134Z,16.97
2019-03-24T01:41:12.149Z,14.87
2019-03-24T01:43:41.668Z,15.27
2019-03-24T01:46:10.603Z,15.67
2019-03-24T01:48:39.553Z,15.57
2019-03-24T01:51:08.610Z,15.70
2019-03-24T01:53:37.996Z,16.97
2019-03-24T01:56:07.517Z,14.37
2019-03-24T01:58:36.449Z,16.27
2019-03-24T02:01:05.863Z,15.20
2019-03-24T02:03:34.942Z,15.83
2019-03-24T02:06:04.438Z,15.23
2019-03-24T02:08:33.742Z,15.83
2019-03-24T02:11:03.178Z,16.00
2019-03-24T02:13:32.595Z,16.10
2019-03-24T02:16:09.313Z,16.17
2019-03-24T02:18:33.003Z,16.20
2019-03-24T02:21:02.620Z,16.23
2019-03-24T02:23:32.060Z,16.47
2019-03-24T02:26:01.464Z,15.37
2019-03-24T02:28:30.895Z,15.97
2019-03-24T02:30:59.891Z,15.93
2019-03-24T02:33:29.248Z,15.63
2019-03-24T02:35:58.572Z,16.23
2019-03-24T02:38:27.639Z,16.13
2019-03-24T02:40:57.217Z,15.40
2019-03-24T02:43:26.287Z,16.03
2019-03-24T02:45:55.358Z,15.63
2019-03-24T02:48:24.697Z,16.73
2019-03-24T02:50:54.234Z,15.70
2019-03-24T02:53:23.554Z,15.20
2019-03-24T02:55:52.978Z,16.57
2019-03-24T02:58:22.396Z,16.03
2019-03-24T03:00:51.616Z,16.27
2019-03-24T03:03:20.751Z,15.70
2019-03-24T03:05:49.981Z,16.93
2019-03-24T03:08:19.316Z,14.97
2019-03-24T03:10:48.358Z,16.20
2019-03-24T03:13:17.950Z,15.80
2019-03-24T03:15:47.015Z,17.90
2019-03-24T03:18:16.111Z,15.37
2019-03-24T03:20:46.017Z,17.07
2019-03-24T03:23:14.659Z,16.60
2019-03-24T03:25:43.685Z,17.17
2019-03-24T03:28:12.753Z,16.57
2019-03-24T03:30:42.337Z,16.93
2019-03-24T03:33:11.415Z,16.20
2019-03-24T03:35:40.445Z,17.23
2019-03-24T03:38:10.022Z,17.37
2019-03-24T03:40:39.440Z,17.60
2019-03-24T03:43:08.622Z,17.33
2019-03-24T03:45:39.336Z,17.90
2019-03-24T03:48:08.300Z,17.93
2019-03-24T03:50:37.437Z,16.63
2019-03-24T03:53:06.066Z,17.80
2019-03-24T03:55:34.710Z,19.20
2019-03-24T03:58:03.380Z,18.70
2019-03-24T04:00:32.938Z,19.10
2019-03-24T04:03:01.958Z,18.50
2019-03-24T04:05:31.321Z,18.93
2019-03-24T04:08:00.584Z,19.50
2019-03-24T04:10:29.596Z,20.70
2019-03-24T04:12:59.000Z,21.53
2019-03-24T04:15:27.685Z,20.13
2019-03-24T04:17:56.852Z,18.63
2019-03-24T04:20:25.925Z,20.40
2019-03-24T04:22:55.313Z,20.13
2019-03-24T04:25:24.932Z,19.50
2019-03-24T04:27:54.352Z,19.73
2019-03-24T04:30:24.341Z,21.40
2019-03-24T04:32:53.459Z,20.17
2019-03-24T04:35:22.303Z,21.20
2019-03-24T04:37:51.058Z,20.27
2019-03-24T04:40:20.140Z,21.73
2019-03-24T04:42:49.205Z,20.87
2019-03-24T04:45:18.543Z,20.60
2019-03-24T04:47:47.883Z,22.53
2019-03-24T04:50:16.848Z,21.07
2019-03-24T04:52:45.862Z,21.20
2019-03-24T04:55:15.247Z,20.87
2019-03-24T04:57:44.178Z,20.57
2019-03-24T05:00:13.672Z,21.47
2019-03-24T05:02:42.764Z,20.87
2019-03-24T05:05:11.759Z,21.03
2019-03-24T05:07:40.979Z,19.70
2019-03-24T05:10:12.808Z,19.60
2019-03-24T05:12:42.191Z,19.47
2019-03-24T05:15:11.254Z,20.47
2019-03-24T05:17:40.252Z,20.87
2019-03-24T05:20:09.316Z,20.43
2019-03-24T05:22:37.960Z,20.20
2019-03-24T05:25:07.257Z,20.23
2019-03-24T05:27:36.568Z,19.73
2019-03-24T05:30:05.971Z,20.33
2019-03-24T05:32:35.059Z,20.17
2019-03-24T05:35:05.732Z,20.17
2019-03-24T05:37:34.122Z,19.27
2019-03-24T05:40:03.091Z,17.07
2019-03-24T05:42:32.715Z,14.80
2019-03-24T05:45:01.777Z,13.30
2019-03-24T05:47:37.041Z,13.33
2019-03-24T05:50:00.658Z,12.97
2019-03-24T05:52:29.291Z,12.63
2019-03-24T05:54:58.050Z,13.00
2019-03-24T05:57:27.103Z,12.50
2019-03-24T05:59:56.675Z,11.67
2019-03-24T06:02:25.817Z,12.03
2019-03-24T06:04:54.798Z,11.50
2019-03-24T06:07:24.190Z,11.20
2019-03-24T06:09:53.603Z,11.77
2019-03-24T06:12:23.035Z,11.43
2019-03-24T06:14:52.130Z,11.57
2019-03-24T06:17:21.979Z,10.70
2019-03-24T06:19:50.960Z,11.53
2019-03-24T06:22:22.263Z,11.20
2019-03-24T06:24:51.519Z,11.77
2019-03-24T06:27:21.153Z,11.47
2019-03-24T06:29:50.202Z,11.93
2019-03-24T06:32:33.090Z,11.80
2019-03-24T06:34:50.338Z,12.13
2019-03-24T06:37:19.259Z,13.10
2019-03-24T06:39:48.702Z,12.73
2019-03-24T06:42:17.882Z,12.60
2019-03-24T06:44:46.935Z,13.30
2019-03-24T06:47:16.339Z,13.57
2019-03-24T06:49:45.574Z,13.90
2019-03-24T06:52:14.734Z,14.13
2019-03-24T06:54:44.398Z,13.27
2019-03-24T06:57:13.003Z,14.03
2019-03-24T06:59:41.747Z,13.23
2019-03-24T07:02:10.357Z,14.07
2019-03-24T07:04:39.151Z,14.47
2019-03-24T07:07:07.764Z,14.83
2019-03-24T07:09:36.383Z,13.60
2019-03-24T07:12:05.123Z,14.27
2019-03-24T07:14:33.875Z,14.10
2019-03-24T07:17:02.572Z,15.53
2019-03-24T07:19:31.187Z,14.63
2019-03-24T07:21:59.819Z,15.83
2019-03-24T07:24:28.470Z,15.80
2019-03-24T07:26:57.070Z,16.60
2019-03-24T07:29:25.706Z,16.17
2019-03-24T07:31:54.322Z,18.03
2019-03-24T07:34:23.051Z,17.47
2019-03-24T07:36:51.731Z,17.60
2019-03-24T07:39:20.374Z,18.13
2019-03-24T07:41:49.106Z,18.97
2019-03-24T07:44:17.769Z,18.87
2019-03-24T07:46:46.345Z,19.17
2019-03-24T07:49:14.962Z,20.20
2019-03-24T07:51:43.587Z,19.93
2019-03-24T07:54:12.188Z,20.13
2019-03-24T07:56:40.915Z,20.57
2019-03-24T07:59:09.514Z,21.27
2019-03-24T08:01:38.145Z,21.53
2019-03-24T08:04:06.785Z,22.13
2019-03-24T08:06:35.399Z,21.57
2019-03-24T08:09:05.506Z,22.13
2019-03-24T08:11:34.127Z,22.23
2019-03-24T08:14:03.161Z,22.63
2019-03-24T08:16:31.787Z,22.60
2019-03-24T08:19:01.095Z,22.97
2019-03-24T08:21:29.700Z,23.50
2019-03-24T08:23:58.320Z,24.10
2019-03-24T08:26:26.959Z,23.37
2019-03-24T08:28:56.330Z,22.97
2019-03-24T08:31:24.934Z,23.73
2019-03-24T08:33:53.987Z,24.87
2019-03-24T08:36:23.089Z,23.53
2019-03-24T08:38:52.451Z,24.20
2019-03-24T08:41:21.679Z,25.73
2019-03-24T08:43:50.314Z,24.73
2019-03-24T08:46:19.161Z,25.43
2019-03-24T08:48:47.758Z,19.67
2019-03-24T08:51:17.208Z,19.67
2019-03-24T08:53:46.274Z,21.50
2019-03-24T08:56:15.283Z,24.17
2019-03-24T08:58:44.027Z,24.30
2019-03-24T09:01:12.650Z,22.97
2019-03-24T09:03:41.779Z,22.03
2019-03-24T09:06:11.186Z,23.20
2019-03-24T09:08:39.826Z,22.77
2019-03-24T09:11:08.412Z,21.77
2019-03-24T09:13:37.392Z,23.50
2019-03-24T09:16:06.720Z,23.37
2019-03-24T09:18:36.155Z,21.83
2019-03-24T09:21:05.234Z,21.17
2019-03-24T09:23:34.598Z,20.43
2019-03-24T09:26:04.037Z,20.17
2019-03-24T09:28:33.819Z,20.10
2019-03-24T09:31:02.962Z,23.87
2019-03-24T09:33:31.944Z,24.70
2019-03-24T09:36:00.938Z,23.87
2019-03-24T09:38:29.983Z,25.07
2019-03-24T09:40:59.167Z,22.80
2019-03-24T09:43:28.897Z,25.33
2019-03-24T09:45:58.514Z,25.23
2019-03-24T09:48:27.222Z,23.23
2019-03-24T09:50:56.859Z,25.87
2019-03-24T09:53:26.286Z,26.73
2019-03-24T09:55:55.713Z,25.53
2019-03-24T09:58:24.942Z,25.37
2019-03-24T10:00:53.991Z,25.27
2019-03-24T10:03:23.170Z,27.27
2019-03-24T10:05:52.726Z,25.70
2019-03-24T10:08:22.448Z,25.40
2019-03-24T10:10:51.772Z,26.17
2019-03-24T10:13:20.780Z,23.57
2019-03-24T10:15:49.808Z,23.17
2019-03-24T10:18:18.921Z,23.80
2019-03-24T10:20:48.054Z,23.57
2019-03-24T10:23:17.308Z,22.77
2019-03-24T10:25:46.626Z,23.07
2019-03-24T10:28:15.671Z,23.50
2019-03-24T10:30:44.881Z,24.17
2019-03-24T10:33:14.307Z,24.83
2019-03-24T10:35:43.916Z,25.70
2019-03-24T10:38:13.157Z,24.47
2019-03-24T10:40:42.247Z,23.33
2019-03-24T10:43:11.282Z,24.77
2019-03-24T10:45:41.218Z,23.80
2019-03-24T10:48:10.332Z,24.63
2019-03-24T10:50:39.384Z,23.57
2019-03-24T10:53:08.172Z,23.80
2019-03-24T10:55:37.726Z,22.50
2019-03-24T10:58:07.164Z,24.17
2019-03-24T11:00:43.054Z,21.63
2019-03-24T11:03:12.430Z,21.90
2019-03-24T11:05:41.525Z,20.27
2019-03-24T11:08:10.160Z,19.37
2019-03-24T11:10:38.776Z,19.77
2019-03-24T11:13:07.473Z,18.17
2019-03-24T11:15:36.456Z,18.57
2019-03-24T11:18:05.693Z,20.17
2019-03-24T11:20:34.668Z,18.57
2019-03-24T11:23:03.955Z,18.13
2019-03-24T11:25:33.363Z,19.00
2019-03-24T11:28:02.406Z,20.80
2019-03-24T11:30:31.481Z,20.70
2019-03-24T11:33:00.471Z,20.50
2019-03-24T11:35:29.883Z,18.70
2019-03-24T11:37:59.488Z,19.40
2019-03-24T11:40:28.926Z,17.63
2019-03-24T11:42:58.446Z,17.27
2019-03-24T11:45:27.772Z,18.77
2019-03-24T11:47:57.383Z,19.20
2019-03-24T11:50:26.618Z,17.93
2019-03-24T11:52:55.951Z,18.63
2019-03-24T11:55:24.631Z,18.90
2019-03-24T11:57:53.890Z,18.50
2019-03-24T12:00:25.848Z,19.73
2019-03-24T12:02:55.487Z,18.17
2019-03-24T12:05:24.825Z,16.10
2019-03-24T12:07:53.787Z,17.87
2019-03-24T12:10:23.367Z,18.13
2019-03-24T12:12:52.305Z,18.20
2019-03-24T12:15:21.816Z,17.67
2019-03-24T12:17:50.931Z,18.33
2019-03-24T12:20:21.342Z,17.87
2019-03-24T12:22:50.871Z,18.67
2019-03-24T12:25:19.968Z,18.73
2019-03-24T12:27:49.040Z,17.73
2019-03-24T12:30:18.176Z,17.73
2019-03-24T12:32:47.209Z,19.13
2019-03-24T12:35:16.807Z,18.53
2019-03-24T12:37:46.426Z,18.43
2019-03-24T12:40:15.653Z,16.70
2019-03-24T12:42:45.087Z,18.33
2019-03-24T12:45:14.332Z,17.47
2019-03-24T12:47:43.374Z,15.47
2019-03-24T12:50:12.699Z,14.30
2019-03-24T12:52:42.185Z,15.00
2019-03-24T12:55:11.608Z,15.83
2019-03-24T12:57:41.222Z,14.20
2019-03-24T13:00:11.312Z,15.53
2019-03-24T13:02:40.663Z,15.60
2019-03-24T13:05:10.027Z,15.23
2019-03-24T13:07:39.310Z,14.63
2019-03-24T13:10:08.871Z,13.40
2019-03-24T13:12:37.809Z,13.27
2019-03-24T13:15:07.367Z,12.93
2019-03-24T13:17:36.470Z,12.20
2019-03-24T13:20:05.845Z,13.30
2019-03-24T13:22:35.202Z,12.10
2019-03-24T13:25:04.812Z,11.87
2019-03-24T13:27:34.111Z,12.80
2019-03-24T13:30:03.632Z,13.53
2019-03-24T13:32:33.258Z,15.67
2019-03-24T13:35:02.586Z,13.67
2019-03-24T13:37:34.109Z,13.40
2019-03-24T13:40:05.550Z,12.70
2019-03-24T13:42:34.609Z,12.20
2019-03-24T13:45:03.966Z,11.87
2019-03-24T13:47:33.021Z,13.20
2019-03-24T13:50:02.095Z,12.60
2019-03-24T13:52:31.193Z,13.27
2019-03-24T13:55:00.355Z,12.37
2019-03-24T13:57:29.963Z,12.00
2019-03-24T13:59:59.551Z,13.20
2019-03-24T14:02:28.983Z,13.57
2019-03-24T14:04:57.785Z,12.90
2019-03-24T14:07:26.866Z,12.57
2019-03-24T14:09:56.061Z,12.60
2019-03-24T14:12:25.493Z,12.07
2019-03-24T14:14:55.104Z,13.10
2019-03-24T14:17:24.335Z,11.90
2019-03-24T14:19:53.415Z,13.27
2019-03-24T14:22:22.787Z,12.13
2019-03-24T14:24:51.877Z,12.03
2019-03-24T14:27:20.544Z,11.83
2019-03-24T14:29:49.778Z,13.27
2019-03-24T14:32:18.757Z,11.60
2019-03-24T14:34:48.038Z,12.23
2019-03-24T14:37:17.034Z,13.07
2019-03-24T14:39:46.390Z,12.10
2019-03-24T14:42:15.445Z,11.90
2019-03-24T14:44:45.031Z,13.63
2019-03-24T14:47:14.650Z,12.30
2019-03-24T14:49:44.088Z,11.23
2019-03-24T14:52:13.692Z,12.37
2019-03-24T14:54:43.128Z,13.40
2019-03-24T14:57:12.549Z,13.27
2019-03-24T14:59:41.623Z,12.57
2019-03-24T15:02:10.999Z,12.63
2019-03-24T15:04:40.226Z,13.90
2019-03-24T15:07:09.295Z,14.23
2019-03-24T15:09:38.544Z,13.60
2019-03-24T15:12:07.299Z,11.93
2019-03-24T15:14:35.902Z,13.77
2019-03-24T15:17:04.821Z,12.47
2019-03-24T15:19:34.397Z,12.47
2019-03-24T15:22:03.829Z,12.40
2019-03-24T15:24:34.266Z,11.73
2019-03-24T15:27:03.959Z,12.97
2019-03-24T15:29:33.159Z,12.77
2019-03-24T15:32:02.144Z,12.93
2019-03-24T15:34:31.725Z,12.53
2019-03-24T15:37:00.835Z,13.13
2019-03-24T15:39:29.846Z,13.83
2019-03-24T15:41:58.883Z,12.47
2019-03-24T15:44:27.873Z,13.67
2019-03-24T15:46:56.907Z,12.57
2019-03-24T15:49:25.954Z,13.93
2019-03-24T15:51:54.660Z,13.87
2019-03-24T15:54:23.969Z,14.63
2019-03-24T15:56:53.395Z,13.57
2019-03-24T15:59:23.396Z,14.40
2019-03-24T16:01:53.032Z,13.90
2019-03-24T16:04:22.183Z,15.50
2019-03-24T16:06:51.306Z,14.73
2019-03-24T16:09:20.349Z,14.80
2019-03-24T16:11:49.929Z,15.80
2019-03-24T16:14:19.444Z,14.70
2019-03-24T16:16:48.403Z,15.40
2019-03-24T16:19:17.803Z,15.90
2019-03-24T16:21:47.231Z,15.37
2019-03-24T16:24:16.401Z,16.10
2019-03-24T16:26:45.334Z,16.93
2019-03-24T16:29:14.707Z,17.33
2019-03-24T16:31:43.771Z,17.30
2019-03-24T16:34:12.811Z,16.67
2019-03-24T16:36:42.192Z,17.47
2019-03-24T16:39:11.426Z,17.73
2019-03-24T16:41:40.473Z,18.60
2019-03-24T16:44:10.955Z,19.37
2019-03-24T16:46:39.888Z,17.70
2019-03-24T16:49:08.971Z,20.23
2019-03-24T16:51:40.649Z,20.13
2019-03-24T16:54:09.331Z,19.13
2019-03-24T16:56:38.944Z,19.20
2019-03-24T16:59:08.570Z,19.83
2019-03-24T17:01:38.189Z,19.47
2019-03-24T17:04:07.612Z,17.03
2019-03-24T17:06:36.637Z,17.73
2019-03-24T17:09:07.013Z,16.17
2019-03-24T17:11:36.107Z,15.17
2019-03-24T17:14:05.210Z,14.23
2019-03-24T17:16:33.885Z,13.30
2019-03-24T17:19:03.360Z,14.60
2019-03-24T17:21:32.686Z,13.67
2019-03-24T17:24:02.027Z,13.27
2019-03-24T17:26:31.089Z,13.83
2019-03-24T17:29:00.371Z,13.77
2019-03-24T17:31:29.699Z,14.37
2019-03-24T17:33:58.763Z,14.73
2019-03-24T17:36:27.802Z,15.50
2019-03-24T17:38:56.854Z,14.73
2019-03-24T17:41:26.064Z,15.67
2019-03-24T17:44:02.859Z,15.80
2019-03-24T17:46:26.035Z,15.67
2019-03-24T17:48:55.476Z,16.90
2019-03-24T17:51:26.548Z,15.20
2019-03-24T17:53:56.068Z,16.10
2019-03-24T17:56:25.530Z,16.27
2019-03-24T17:58:56.277Z,18.13
2019-03-24T18:01:25.572Z,18.13
2019-03-24T18:03:55.725Z,18.47
2019-03-24T18:06:25.596Z,17.23
2019-03-24T18:08:55.174Z,16.80
2019-03-24T18:11:24.900Z,17.80
2019-03-24T18:13:54.838Z,17.47
2019-03-24T18:16:24.541Z,17.03
2019-03-24T18:18:54.045Z,18.13
2019-03-24T18:21:25.651Z,17.43
2019-03-24T18:23:55.510Z,17.10
2019-03-24T18:26:25.963Z,17.30
2019-03-24T18:28:55.568Z,17.73
2019-03-24T18:31:24.711Z,18.00
2019-03-24T18:33:53.838Z,19.00
2019-03-24T18:36:22.811Z,18.00
2019-03-24T18:38:52.406Z,18.43
2019-03-24T18:41:21.647Z,17.57
2019-03-24T18:43:51.127Z,18.93
2019-03-24T18:46:21.042Z,18.67
2019-03-24T18:48:50.211Z,18.60
2019-03-24T18:51:19.251Z,18.13
2019-03-24T18:53:48.734Z,18.27
2019-03-24T18:56:18.036Z,18.07
2019-03-24T18:58:46.642Z,17.70
2019-03-24T19:01:15.603Z,17.83
2019-03-24T19:03:45.215Z,19.17
2019-03-24T19:06:14.833Z,33.43
2019-03-24T19:08:44.273Z,30.03
2019-03-24T19:11:13.813Z,24.57
2019-03-24T19:13:42.783Z,18.20
2019-03-24T19:16:12.143Z,19.00
2019-03-24T19:18:41.752Z,18.73
2019-03-24T19:21:10.938Z,18.37
2019-03-24T19:23:40.220Z,18.90
2019-03-24T19:26:09.307Z,19.70
2019-03-24T19:28:38.343Z,19.23
2019-03-24T19:31:07.605Z,18.93
2019-03-24T19:33:36.559Z,19.80
2019-03-24T19:36:05.691Z,18.70
2019-03-24T19:38:34.918Z,19.73
2019-03-24T19:41:04.006Z,19.20
2019-03-24T19:43:33.430Z,19.20
2019-03-24T19:46:02.519Z,18.53
2019-03-24T19:48:31.857Z,20.10
2019-03-24T19:51:00.956Z,21.23
2019-03-24T19:53:29.976Z,21.47
2019-03-24T19:55:59.006Z,19.70
2019-03-24T19:58:28.398Z,20.50
2019-03-24T20:00:57.819Z,22.23
2019-03-24T20:03:26.895Z,22.63
2019-03-24T20:05:56.211Z,21.20
2019-03-24T20:08:25.140Z,21.40
2019-03-24T20:10:54.179Z,22.43
2019-03-24T20:13:23.747Z,21.10
2019-03-24T20:15:52.819Z,21.93
2019-03-24T20:18:21.964Z,21.30
2019-03-24T20:20:52.210Z,20.17
2019-03-24T20:23:21.376Z,21.13
2019-03-24T20:25:50.537Z,20.07
2019-03-24T20:28:19.158Z,20.47
2019-03-24T20:30:48.810Z,21.20
2019-03-24T20:33:18.155Z,21.40
2019-03-24T20:35:47.587Z,21.13
2019-03-24T20:38:16.319Z,21.47
2019-03-24T20:40:45.657Z,20.67
2019-03-24T20:43:14.719Z,21.57
2019-03-24T20:45:44.090Z,20.97
2019-03-24T20:48:13.319Z,21.23
2019-03-24T20:50:42.543Z,20.00
2019-03-24T20:53:18.196Z,21.87
2019-03-24T20:55:42.583Z,21.77
2019-03-24T20:58:12.025Z,21.47
2019-03-24T21:00:41.528Z,20.77
2019-03-24T21:03:10.880Z,21.73
2019-03-24T21:05:39.882Z,21.73
2019-03-24T21:08:09.297Z,21.67
2019-03-24T21:10:38.430Z,20.60
2019-03-24T21:13:08.430Z,21.60
2019-03-24T21:15:37.403Z,21.50
2019-03-24T21:18:06.975Z,21.43
2019-03-24T21:20:36.048Z,21.47
2019-03-24T21:23:05.624Z,23.47
2019-03-24T21:25:34.587Z,23.93
2019-03-24T21:28:04.092Z,23.00
2019-03-24T21:30:33.994Z,23.70
2019-03-24T21:33:03.324Z,23.97
2019-03-24T21:35:32.443Z,22.87
2019-03-24T21:38:01.778Z,23.60
2019-03-24T21:40:30.875Z,25.93
2019-03-24T21:43:00.136Z,24.37
2019-03-24T21:45:28.835Z,25.53
2019-03-24T21:47:57.914Z,26.20
2019-03-24T21:50:27.319Z,27.67
2019-03-24T21:52:56.931Z,26.03
2019-03-24T21:55:25.551Z,27.20
2019-03-24T21:57:57.761Z,25.87
2019-03-24T22:00:35.803Z,27.60
2019-03-24T22:03:05.051Z,27.97
2019-03-24T22:05:33.775Z,26.73
2019-03-24T22:08:02.802Z,27.97
2019-03-24T22:10:32.138Z,28.57
2019-03-24T22:13:01.199Z,28.87
2019-03-24T22:15:30.206Z,29.03
2019-03-24T22:17:59.286Z,27.73
2019-03-24T22:20:28.281Z,28.43
2019-03-24T22:22:57.874Z,29.60
2019-03-24T22:25:26.487Z,29.13
2019-03-24T22:27:55.578Z,27.53
2019-03-24T22:30:24.596Z,29.03
2019-03-24T22:32:56.544Z,29.00
2019-03-24T22:35:25.874Z,29.57
2019-03-24T22:37:55.789Z,29.07
2019-03-24T22:40:25.212Z,27.33
2019-03-24T22:42:54.289Z,28.43
2019-03-24T22:45:23.311Z,27.13
2019-03-24T22:47:52.306Z,26.63
2019-03-24T22:50:21.922Z,28.57
2019-03-24T22:52:51.451Z,27.20
2019-03-24T22:55:20.806Z,27.57
2019-03-24T22:57:50.190Z,28.97
2019-03-24T23:00:23.401Z,26.33
2019-03-24T23:02:52.716Z,28.47
2019-03-24T23:05:22.011Z,28.20
2019-03-24T23:07:51.612Z,26.67
2019-03-24T23:10:21.046Z,26.23
2019-03-24T23:12:50.147Z,25.90
2019-03-24T23:15:19.291Z,26.83
2019-03-24T23:17:48.822Z,24.70
2019-03-24T23:20:18.213Z,26.50
2019-03-24T23:22:47.595Z,26.13
2019-03-24T23:25:17.180Z,26.20
2019-03-24T23:27:46.626Z,27.93
2019-03-24T23:30:15.956Z,26.73
2019-03-24T23:32:45.020Z,28.93
2019-03-24T23:35:13.911Z,28.60
2019-03-24T23:37:42.962Z,29.80
2019-03-24T23:40:12.299Z,29.20
2019-03-24T23:42:41.773Z,29.77
2019-03-24T23:45:11.188Z,29.47
2019-03-24T23:47:40.259Z,28.73
2019-03-24T23:50:09.598Z,29.90
2019-03-24T23:52:39.067Z,30.10
2019-03-24T23:55:09.138Z,27.23
2019-03-24T23:57:38.695Z,28.57
